sensor_id;sensor_type;location;lat;lon;timestamp;pressure;altitude;pressure_sealevel;temperature;humidity
13734;BME280;43298;52.560;13.508;2023-05-20T00:00:33;102041.56;;;11.17;100.00
13734;BME280;43298;52.560;13.508;2023-05-20T00:02:59;102038.97;;;11.17;100.00
13734;BME280;43298;52.560;13.508;2023-05-20T00:05:25;102040.69;;;11.17;100.00
13734;BME280;43298;52.560;13.508;2023-05-20T00:07:51;102041.59;;;11.16;100.00
13734;BME280;43298;52.560;13.508;2023-05-20T00:10:17;102037.38;;;11.12;100.00
13734;BME280;43298;52.560;13.508;2023-05-20T00:12:43;102029.69;;;11.09;100.00
13734;BME280;43298;52.560;13.508;2023-05-20T00:15:09;102030.66;;;11.05;100.00
13734;BME280;43298;52.560;13.508;2023-05-20T00:17:37;102026.44;;;11.01;100.00
13734;BME280;43298;52.560;13.508;2023-05-20T00:20:03;102033.44;;;10.96;100.00
13734;BME280;43298;52.560;13.508;2023-05-20T00:22:30;102036.03;;;10.94;100.00
13734;BME280;43298;52.560;13.508;2023-05-20T00:24:56;102029.19;;;10.93;100.00
13734;BME280;43298;52.560;13.508;2023-05-20T00:27:22;102035.28;;;10.91;100.00
13734;BME280;43298;52.560;13.508;2023-05-20T00:29:48;102037.97;;;10.86;100.00
13734;BME280;43298;52.560;13.508;2023-05-20T00:32:14;102038.88;;;10.84;100.00
13734;BME280;43298;52.560;13.508;2023-05-20T00:34:42;102030.19;;;10.86;100.00
13734;BME280;43298;52.560;13.508;2023-05-20T00:37:07;102034.50;;;10.86;100.00
13734;BME280;43298;52.560;13.508;2023-05-20T00:39:33;102036.31;;;10.82;100.00
13734;BME280;43298;52.560;13.508;2023-05-20T00:41:59;102031.19;;;10.81;100.00
13734;BME280;43298;52.560;13.508;2023-05-20T00:44:27;102037.28;;;10.78;100.00
13734;BME280;43298;52.560;13.508;2023-05-20T00:46:53;102041.72;;;10.72;100.00
13734;BME280;43298;52.560;13.508;2023-05-20T00:49:19;102046.88;;;10.72;100.00
13734;BME280;43298;52.560;13.508;2023-05-20T00:51:46;102051.25;;;10.70;100.00
13734;BME280;43298;52.560;13.508;2023-05-20T00:54:12;102048.72;;;10.68;100.00
13734;BME280;43298;52.560;13.508;2023-05-20T00:56:39;102048.63;;;10.73;100.00
13734;BME280;43298;52.560;13.508;2023-05-20T00:59:05;102044.28;;;10.73;100.00
13734;BME280;43298;52.560;13.508;2023-05-20T01:01:31;102044.31;;;10.72;100.00
13734;BME280;43298;52.560;13.508;2023-05-20T01:03:58;102037.44;;;10.71;100.00
13734;BME280;43298;52.560;13.508;2023-05-20T01:06:24;102039.00;;;10.78;100.00
13734;BME280;43298;52.560;13.508;2023-05-20T01:08:50;102024.34;;;10.78;100.00
13734;BME280;43298;52.560;13.508;2023-05-20T01:11:49;102029.72;;;10.68;100.00
13734;BME280;43298;52.560;13.508;2023-05-20T01:14:18;102027.19;;;10.66;100.00
13734;BME280;43298;52.560;13.508;2023-05-20T01:16:47;102027.22;;;10.65;100.00
13734;BME280;43298;52.560;13.508;2023-05-20T01:19:44;102020.28;;;10.67;100.00
13734;BME280;43298;52.560;13.508;2023-05-20T01:22:12;102024.63;;;10.65;100.00
13734;BME280;43298;52.560;13.508;2023-05-20T01:24:43;102024.88;;;10.54;100.00
13734;BME280;43298;52.560;13.508;2023-05-20T01:27:11;102016.28;;;10.52;100.00
13734;BME280;43298;52.560;13.508;2023-05-20T01:29:39;102019.72;;;10.53;100.00
13734;BME280;43298;52.560;13.508;2023-05-20T01:32:14;102027.41;;;10.56;100.00
13734;BME280;43298;52.560;13.508;2023-05-20T01:34:43;102018.81;;;10.54;100.00
13734;BME280;43298;52.560;13.508;2023-05-20T01:37:10;102017.06;;;10.56;100.00
13734;BME280;43298;52.560;13.508;2023-05-20T01:39:39;102018.75;;;10.57;100.00
13734;BME280;43298;52.560;13.508;2023-05-20T01:42:09;102018.72;;;10.58;100.00
13734;BME280;43298;52.560;13.508;2023-05-20T01:44:39;102017.97;;;10.55;100.00
13734;BME280;43298;52.560;13.508;2023-05-20T01:47:08;102014.50;;;10.54;100.00
13734;BME280;43298;52.560;13.508;2023-05-20T01:49:34;102023.19;;;10.52;100.00
13734;BME280;43298;52.560;13.508;2023-05-20T01:52:00;102022.31;;;10.53;100.00
13734;BME280;43298;52.560;13.508;2023-05-20T01:54:26;102018.06;;;10.50;100.00
13734;BME280;43298;52.560;13.508;2023-05-20T01:56:51;102015.50;;;10.49;100.00
13734;BME280;43298;52.560;13.508;2023-05-20T01:59:17;102015.59;;;10.44;100.00
13734;BME280;43298;52.560;13.508;2023-05-20T02:01:43;102012.94;;;10.47;100.00
13734;BME280;43298;52.560;13.508;2023-05-20T02:04:09;102009.63;;;10.41;100.00
13734;BME280;43298;52.560;13.508;2023-05-20T02:06:35;102014.81;;;10.41;100.00
13734;BME280;43298;52.560;13.508;2023-05-20T02:09:00;102013.16;;;10.38;100.00
13734;BME280;43298;52.560;13.508;2023-05-20T02:11:26;102008.91;;;10.33;100.00
13734;BME280;43298;52.560;13.508;2023-05-20T02:13:52;102004.66;;;10.30;100.00
13734;BME280;43298;52.560;13.508;2023-05-20T02:16:18;102011.56;;;10.31;100.00
13734;BME280;43298;52.560;13.508;2023-05-20T02:18:44;102009.81;;;10.32;100.00
13734;BME280;43298;52.560;13.508;2023-05-20T02:21:09;102004.66;;;10.30;100.00
13734;BME280;43298;52.560;13.508;2023-05-20T02:23:35;102015.00;;;10.30;100.00
13734;BME280;43298;52.560;13.508;2023-05-20T02:26:01;102015.97;;;10.25;100.00
13734;BME280;43298;52.560;13.508;2023-05-20T02:28:27;102014.34;;;10.21;100.00
13734;BME280;43298;52.560;13.508;2023-05-20T02:30:53;102017.00;;;10.16;100.00
13734;BME280;43298;52.560;13.508;2023-05-20T02:33:19;102012.72;;;10.17;100.00
13734;BME280;43298;52.560;13.508;2023-05-20T02:35:45;102005.13;;;10.08;100.00
13734;BME280;43298;52.560;13.508;2023-05-20T02:38:11;102001.69;;;10.07;100.00
13734;BME280;43298;52.560;13.508;2023-05-20T02:40:38;102007.69;;;10.08;100.00
13734;BME280;43298;52.560;13.508;2023-05-20T02:43:04;102001.72;;;10.04;100.00
13734;BME280;43298;52.560;13.508;2023-05-20T02:45:30;102014.66;;;10.06;100.00
13734;BME280;43298;52.560;13.508;2023-05-20T02:47:55;102015.56;;;10.02;100.00
13734;BME280;43298;52.560;13.508;2023-05-20T02:50:21;102017.22;;;10.04;100.00
13734;BME280;43298;52.560;13.508;2023-05-20T02:52:47;102015.63;;;9.99;100.00
13734;BME280;43298;52.560;13.508;2023-05-20T02:55:13;102014.75;;;9.98;100.00
13734;BME280;43298;52.560;13.508;2023-05-20T02:57:39;102020.91;;;9.91;100.00
13734;BME280;43298;52.560;13.508;2023-05-20T03:00:07;102021.88;;;9.86;100.00
13734;BME280;43298;52.560;13.508;2023-05-20T03:02:36;102018.47;;;9.84;100.00
13734;BME280;43298;52.560;13.508;2023-05-20T03:05:02;102022.72;;;9.88;100.00
13734;BME280;43298;52.560;13.508;2023-05-20T03:07:30;102017.63;;;9.83;100.00
13734;BME280;43298;52.560;13.508;2023-05-20T03:09:56;102018.59;;;9.78;100.00
13734;BME280;43298;52.560;13.508;2023-05-20T03:12:24;102025.56;;;9.74;100.00
13734;BME280;43298;52.560;13.508;2023-05-20T03:14:51;102033.22;;;9.77;100.00
13734;BME280;43298;52.560;13.508;2023-05-20T03:17:21;102033.25;;;9.76;100.00
13734;BME280;43298;52.560;13.508;2023-05-20T03:19:47;102033.31;;;9.74;100.00
13734;BME280;43298;52.560;13.508;2023-05-20T03:22:13;102034.16;;;9.73;100.00
13734;BME280;43298;52.560;13.508;2023-05-20T03:24:38;102036.72;;;9.75;100.00
13734;BME280;43298;52.560;13.508;2023-05-20T03:27:05;102039.03;;;9.88;100.00
13734;BME280;43298;52.560;13.508;2023-05-20T03:29:31;102039.84;;;9.93;100.00
13734;BME280;43298;52.560;13.508;2023-05-20T03:31:58;102046.69;;;9.94;100.00
13734;BME280;43298;52.560;13.508;2023-05-20T03:34:24;102044.78;;;10.04;100.00
13734;BME280;43298;52.560;13.508;2023-05-20T03:36:52;102041.44;;;9.99;100.00
13734;BME280;43298;52.560;13.508;2023-05-20T03:39:18;102038.69;;;10.09;100.00
13734;BME280;43298;52.560;13.508;2023-05-20T03:41:44;102042.09;;;10.13;100.00
13734;BME280;43298;52.560;13.508;2023-05-20T03:44:09;102049.63;;;10.23;100.00
13734;BME280;43298;52.560;13.508;2023-05-20T03:46:35;102055.72;;;10.21;100.00
13734;BME280;43298;52.560;13.508;2023-05-20T03:49:01;102050.50;;;10.22;100.00
13734;BME280;43298;52.560;13.508;2023-05-20T03:51:27;102048.91;;;10.17;100.00
13734;BME280;43298;52.560;13.508;2023-05-20T03:53:53;102046.00;;;10.32;100.00
13734;BME280;43298;52.560;13.508;2023-05-20T03:56:18;102049.25;;;10.41;100.00
13734;BME280;43298;52.560;13.508;2023-05-20T03:58:44;102049.34;;;10.38;100.00
13734;BME280;43298;52.560;13.508;2023-05-20T04:01:10;102050.19;;;10.39;100.00
13734;BME280;43298;52.560;13.508;2023-05-20T04:03:40;102052.72;;;10.42;100.00
13734;BME280;43298;52.560;13.508;2023-05-20T04:06:08;102044.13;;;10.40;100.00
13734;BME280;43298;52.560;13.508;2023-05-20T04:08:34;102046.53;;;10.49;100.00
13734;BME280;43298;52.560;13.508;2023-05-20T04:11:03;102044.94;;;10.42;100.00
13734;BME280;43298;52.560;13.508;2023-05-20T04:13:29;102040.53;;;10.47;100.00
13734;BME280;43298;52.560;13.508;2023-05-20T04:15:55;102037.78;;;10.54;100.00
13734;BME280;43298;52.560;13.508;2023-05-20T04:18:21;102036.78;;;10.61;100.00
13734;BME280;43298;52.560;13.508;2023-05-20T04:20:47;102036.97;;;10.52;100.00
13734;BME280;43298;52.560;13.508;2023-05-20T04:23:13;102033.47;;;10.55;100.00
13734;BME280;43298;52.560;13.508;2023-05-20T04:25:38;102038.41;;;10.65;100.00
13734;BME280;43298;52.560;13.508;2023-05-20T04:28:06;102037.44;;;10.71;100.00
13734;BME280;43298;52.560;13.508;2023-05-20T04:30:35;102036.63;;;10.69;100.00
13734;BME280;43298;52.560;13.508;2023-05-20T04:33:00;102034.03;;;10.70;100.00
13734;BME280;43298;52.560;13.508;2023-05-20T04:35:28;102035.66;;;10.74;100.00
13734;BME280;43298;52.560;13.508;2023-05-20T04:37:54;102035.44;;;10.83;100.00
13734;BME280;43298;52.560;13.508;2023-05-20T04:40:20;102038.16;;;10.77;100.00
13734;BME280;43298;52.560;13.508;2023-05-20T04:42:47;102030.25;;;10.83;100.00
13734;BME280;43298;52.560;13.508;2023-05-20T04:45:13;102025.94;;;10.84;100.00
13734;BME280;43298;52.560;13.508;2023-05-20T04:47:39;102036.84;;;10.98;100.00
13734;BME280;43298;52.560;13.508;2023-05-20T04:50:08;102042.94;;;10.95;100.00
13734;BME280;43298;52.560;13.508;2023-05-20T04:52:38;102042.69;;;11.06;100.00
13734;BME280;43298;52.560;13.508;2023-05-20T04:55:06;102045.91;;;11.15;100.00
13734;BME280;43298;52.560;13.508;2023-05-20T04:57:35;102046.78;;;11.16;100.00
13734;BME280;43298;52.560;13.508;2023-05-20T05:00:04;102038.13;;;11.17;100.00
13734;BME280;43298;52.560;13.508;2023-05-20T05:02:33;102043.22;;;11.20;100.00
13734;BME280;43298;52.560;13.508;2023-05-20T05:04:59;102037.06;;;11.25;100.00
13734;BME280;43298;52.560;13.508;2023-05-20T05:07:24;102036.13;;;11.28;100.00
13734;BME280;43298;52.560;13.508;2023-05-20T05:09:50;102035.03;;;11.38;100.00
13734;BME280;43298;52.560;13.508;2023-05-20T05:12:16;102034.13;;;11.39;100.00
13734;BME280;43298;52.560;13.508;2023-05-20T05:14:42;102035.13;;;11.33;100.00
13734;BME280;43298;52.560;13.508;2023-05-20T05:17:08;102033.03;;;11.49;100.00
13734;BME280;43298;52.560;13.508;2023-05-20T05:19:33;102035.59;;;11.49;100.00
13734;BME280;43298;52.560;13.508;2023-05-20T05:21:59;102032.00;;;11.54;100.00
13734;BME280;43298;52.560;13.508;2023-05-20T05:24:25;102035.22;;;11.65;100.00
13734;BME280;43298;52.560;13.508;2023-05-20T05:26:55;102030.47;;;11.47;100.00
13734;BME280;43298;52.560;13.508;2023-05-20T05:29:21;102031.13;;;11.55;100.00
13734;BME280;43298;52.560;13.508;2023-05-20T05:31:46;102036.16;;;11.63;100.00
13734;BME280;43298;52.560;13.508;2023-05-20T05:34:12;102035.41;;;11.58;100.00
13734;BME280;43298;52.560;13.508;2023-05-20T05:36:39;102033.91;;;11.48;100.00
13734;BME280;43298;52.560;13.508;2023-05-20T05:39:05;102033.97;;;11.45;100.00
13734;BME280;43298;52.560;13.508;2023-05-20T05:41:31;102035.66;;;11.47;100.00
13734;BME280;43298;52.560;13.508;2023-05-20T05:43:58;102033.78;;;11.54;100.00
13734;BME280;43298;52.560;13.508;2023-05-20T05:46:24;102031.94;;;11.57;100.00
13734;BME280;43298;52.560;13.508;2023-05-20T05:48:50;102035.16;;;11.68;100.00
13734;BME280;43298;52.560;13.508;2023-05-20T05:51:16;102042.91;;;11.68;100.00
13734;BME280;43298;52.560;13.508;2023-05-20T05:53:42;102032.56;;;11.68;100.00
13734;BME280;43298;52.560;13.508;2023-05-20T05:56:08;102030.56;;;11.78;100.00
13734;BME280;43298;52.560;13.508;2023-05-20T05:58:34;102019.34;;;11.79;100.00
13734;BME280;43298;52.560;13.508;2023-05-20T06:01:00;102027.56;;;11.93;100.00
13734;BME280;43298;52.560;13.508;2023-05-20T06:03:26;102015.28;;;12.01;100.00
13734;BME280;43298;52.560;13.508;2023-05-20T06:05:54;102013.19;;;12.13;100.00
13734;BME280;43298;52.560;13.508;2023-05-20T06:08:20;102011.31;;;12.18;100.00
13734;BME280;43298;52.560;13.508;2023-05-20T06:10:50;102012.22;;;12.18;100.00
13734;BME280;43298;52.560;13.508;2023-05-20T06:13:16;102008.66;;;12.22;100.00
13734;BME280;43298;52.560;13.508;2023-05-20T06:15:42;102009.47;;;12.24;100.00
13734;BME280;43298;52.560;13.508;2023-05-20T06:18:11;102010.28;;;12.24;100.00
13734;BME280;43298;52.560;13.508;2023-05-20T06:20:37;102017.91;;;12.30;100.00
13734;BME280;43298;52.560;13.508;2023-05-20T06:23:03;102017.84;;;12.33;100.00
13734;BME280;43298;52.560;13.508;2023-05-20T06:25:28;102007.38;;;12.36;100.00
13734;BME280;43298;52.560;13.508;2023-05-20T06:27:54;102010.63;;;12.43;100.00
13734;BME280;43298;52.560;13.508;2023-05-20T06:30:20;102014.78;;;12.48;100.00
13734;BME280;43298;52.560;13.508;2023-05-20T06:32:46;102014.03;;;12.74;100.00
13734;BME280;43298;52.560;13.508;2023-05-20T06:35:12;102007.63;;;12.84;100.00
13734;BME280;43298;52.560;13.508;2023-05-20T06:37:38;102011.09;;;12.84;100.00
13734;BME280;43298;52.560;13.508;2023-05-20T06:40:05;102011.16;;;12.83;100.00
13734;BME280;43298;52.560;13.508;2023-05-20T06:42:30;102008.22;;;12.93;100.00
13734;BME280;43298;52.560;13.508;2023-05-20T06:44:56;102005.16;;;12.81;100.00
13734;BME280;43298;52.560;13.508;2023-05-20T06:47:22;102007.41;;;12.91;100.00
13734;BME280;43298;52.560;13.508;2023-05-20T06:49:48;102010.72;;;12.96;100.00
13734;BME280;43298;52.560;13.508;2023-05-20T06:52:14;102008.78;;;13.04;100.00
13734;BME280;43298;52.560;13.508;2023-05-20T06:54:39;102006.38;;;13.24;100.00
13734;BME280;43298;52.560;13.508;2023-05-20T06:57:09;102006.84;;;13.11;100.00
13734;BME280;43298;52.560;13.508;2023-05-20T06:59:36;101997.09;;;13.17;100.00
13734;BME280;43298;52.560;13.508;2023-05-20T07:02:03;101995.56;;;13.10;100.00
13734;BME280;43298;52.560;13.508;2023-05-20T07:04:29;101998.09;;;13.13;100.00
13734;BME280;43298;52.560;13.508;2023-05-20T07:06:55;101995.59;;;13.36;100.00
13734;BME280;43298;52.560;13.508;2023-05-20T07:09:20;101999.03;;;13.37;100.00
13734;BME280;43298;52.560;13.508;2023-05-20T07:11:46;101997.31;;;13.62;100.00
13734;BME280;43298;52.560;13.508;2023-05-20T07:14:12;101996.88;;;13.49;100.00
13734;BME280;43298;52.560;13.508;2023-05-20T07:16:38;101997.94;;;13.44;100.00
13734;BME280;43298;52.560;13.508;2023-05-20T07:19:04;101996.06;;;13.49;100.00
13734;BME280;43298;52.560;13.508;2023-05-20T07:21:30;101994.03;;;13.57;100.00
13734;BME280;43298;52.560;13.508;2023-05-20T07:23:55;101998.91;;;13.66;100.00
13734;BME280;43298;52.560;13.508;2023-05-20T07:26:21;102001.34;;;13.70;100.00
13734;BME280;43298;52.560;13.508;2023-05-20T07:28:47;102002.94;;;13.74;100.00
13734;BME280;43298;52.560;13.508;2023-05-20T07:31:13;102002.75;;;13.80;100.00
13734;BME280;43298;52.560;13.508;2023-05-20T07:33:39;102002.38;;;13.91;100.00
13734;BME280;43298;52.560;13.508;2023-05-20T07:36:05;101993.94;;;13.84;100.00
13734;BME280;43298;52.560;13.508;2023-05-20T07:38:31;101990.84;;;13.73;100.00
13734;BME280;43298;52.560;13.508;2023-05-20T07:40:57;101996.44;;;13.87;100.00
13734;BME280;43298;52.560;13.508;2023-05-20T07:43:26;101991.44;;;13.81;100.00
13734;BME280;43298;52.560;13.508;2023-05-20T07:45:51;101997.75;;;13.99;100.00
13734;BME280;43298;52.560;13.508;2023-05-20T07:48:17;101985.94;;;14.13;100.00
13734;BME280;43298;52.560;13.508;2023-05-20T07:50:43;101986.19;;;14.07;100.00
13734;BME280;43298;52.560;13.508;2023-05-20T07:53:09;101984.91;;;14.17;100.00
13734;BME280;43298;52.560;13.508;2023-05-20T07:55:35;101981.91;;;14.29;100.00
13734;BME280;43298;52.560;13.508;2023-05-20T07:58:02;101976.28;;;14.40;100.00
13734;BME280;43298;52.560;13.508;2023-05-20T08:00:28;101976.34;;;14.61;100.00
13734;BME280;43298;52.560;13.508;2023-05-20T08:02:53;101970.75;;;14.70;100.00
13734;BME280;43298;52.560;13.508;2023-05-20T08:05:19;101974.47;;;14.86;100.00
13734;BME280;43298;52.560;13.508;2023-05-20T08:07:47;101970.13;;;14.87;100.00
13734;BME280;43298;52.560;13.508;2023-05-20T08:10:13;101961.75;;;14.79;100.00
13734;BME280;43298;52.560;13.508;2023-05-20T08:12:39;101952.00;;;14.62;100.00
13734;BME280;43298;52.560;13.508;2023-05-20T08:15:06;101953.44;;;14.69;100.00
13734;BME280;43298;52.560;13.508;2023-05-20T08:17:32;101957.50;;;14.76;100.00
13734;BME280;43298;52.560;13.508;2023-05-20T08:19:58;101964.25;;;15.03;100.00
13734;BME280;43298;52.560;13.508;2023-05-20T08:22:24;101955.38;;;15.07;100.00
13734;BME280;43298;52.560;13.508;2023-05-20T08:24:50;101962.69;;;14.99;100.00
13734;BME280;43298;52.560;13.508;2023-05-20T08:27:16;101956.03;;;15.13;100.00
13734;BME280;43298;52.560;13.508;2023-05-20T08:29:44;101965.06;;;15.26;100.00
13734;BME280;43298;52.560;13.508;2023-05-20T08:32:10;101957.53;;;15.18;100.00
13734;BME280;43298;52.560;13.508;2023-05-20T08:34:36;101966.16;;;15.62;100.00
13734;BME280;43298;52.560;13.508;2023-05-20T08:37:01;101954.16;;;15.58;100.00
13734;BME280;43298;52.560;13.508;2023-05-20T08:39:27;101947.56;;;15.69;100.00
13734;BME280;43298;52.560;13.508;2023-05-20T08:41:53;101945.53;;;16.14;100.00
13734;BME280;43298;52.560;13.508;2023-05-20T08:44:20;101944.19;;;16.61;100.00
13734;BME280;43298;52.560;13.508;2023-05-20T08:46:47;101942.31;;;16.46;100.00
13734;BME280;43298;52.560;13.508;2023-05-20T08:49:13;101938.97;;;16.24;100.00
13734;BME280;43298;52.560;13.508;2023-05-20T08:51:39;101945.28;;;15.82;100.00
13734;BME280;43298;52.560;13.508;2023-05-20T08:54:08;101946.84;;;15.66;100.00
13734;BME280;43298;52.560;13.508;2023-05-20T08:56:34;101946.53;;;15.73;100.00
13734;BME280;43298;52.560;13.508;2023-05-20T08:59:02;101943.47;;;15.64;100.00
13734;BME280;43298;52.560;13.508;2023-05-20T09:01:28;101950.03;;;15.72;100.00
13734;BME280;43298;52.560;13.508;2023-05-20T09:03:54;101947.69;;;15.66;100.00
13734;BME280;43298;52.560;13.508;2023-05-20T09:06:20;101957.69;;;15.57;100.00
13734;BME280;43298;52.560;13.508;2023-05-20T09:08:50;101944.91;;;15.71;100.00
13734;BME280;43298;52.560;13.508;2023-05-20T09:11:17;101945.66;;;15.73;100.00
13734;BME280;43298;52.560;13.508;2023-05-20T09:13:43;101939.94;;;15.65;100.00
13734;BME280;43298;52.560;13.508;2023-05-20T09:16:09;101935.31;;;15.71;100.00
13734;BME280;43298;52.560;13.508;2023-05-20T09:18:39;101939.06;;;15.84;100.00
13734;BME280;43298;52.560;13.508;2023-05-20T09:21:06;101936.03;;;15.93;100.00
13734;BME280;43298;52.560;13.508;2023-05-20T09:23:31;101939.13;;;15.83;100.00
13734;BME280;43298;52.560;13.508;2023-05-20T09:26:00;101943.03;;;15.93;100.00
13734;BME280;43298;52.560;13.508;2023-05-20T09:28:28;101940.44;;;16.11;100.00
13734;BME280;43298;52.560;13.508;2023-05-20T09:30:58;101945.09;;;16.05;100.00
13734;BME280;43298;52.560;13.508;2023-05-20T09:33:28;101919.25;;;15.99;100.00
13734;BME280;43298;52.560;13.508;2023-05-20T09:36:07;101936.66;;;15.80;100.00
13734;BME280;43298;52.560;13.508;2023-05-20T09:38:37;101930.75;;;15.76;100.00
13734;BME280;43298;52.560;13.508;2023-05-20T09:41:15;101930.16;;;16.08;100.00
13734;BME280;43298;52.560;13.508;2023-05-20T09:43:41;101934.38;;;16.11;100.00
13734;BME280;43298;52.560;13.508;2023-05-20T09:46:07;101933.22;;;15.98;100.00
13734;BME280;43298;52.560;13.508;2023-05-20T09:48:37;101937.88;;;16.10;100.00
13734;BME280;43298;52.560;13.508;2023-05-20T09:51:05;101932.53;;;16.13;100.00
13734;BME280;43298;52.560;13.508;2023-05-20T09:53:32;101935.81;;;16.18;100.00
13734;BME280;43298;52.560;13.508;2023-05-20T09:55:58;101939.53;;;16.12;100.00
13734;BME280;43298;52.560;13.508;2023-05-20T09:58:24;101942.09;;;16.14;100.00
13734;BME280;43298;52.560;13.508;2023-05-20T10:00:51;101929.03;;;16.14;100.00
13734;BME280;43298;52.560;13.508;2023-05-20T10:03:21;101935.13;;;16.51;100.00
13734;BME280;43298;52.560;13.508;2023-05-20T10:09:29;101942.38;;;16.45;100.00
13734;BME280;43298;52.560;13.508;2023-05-20T10:12:32;101933.34;;;16.33;100.00
13734;BME280;43298;52.560;13.508;2023-05-20T10:18:28;101936.88;;;16.14;100.00
13734;BME280;43298;52.560;13.508;2023-05-20T10:20:57;101936.91;;;16.31;100.00
13734;BME280;43298;52.560;13.508;2023-05-20T10:23:28;101939.09;;;16.77;100.00
13734;BME280;43298;52.560;13.508;2023-05-20T10:25:56;101924.06;;;16.82;100.00
13734;BME280;43298;52.560;13.508;2023-05-20T10:28:36;101924.19;;;16.79;100.00
13734;BME280;43298;52.560;13.508;2023-05-20T10:31:17;101933.75;;;16.97;100.00
13734;BME280;43298;52.560;13.508;2023-05-20T10:33:46;101929.03;;;17.39;100.00
13734;BME280;43298;52.560;13.508;2023-05-20T10:36:44;101927.38;;;16.50;100.00
13734;BME280;43298;52.560;13.508;2023-05-20T10:39:14;101928.31;;;16.66;100.00
13734;BME280;43298;52.560;13.508;2023-05-20T10:41:43;101924.09;;;16.45;100.00
13734;BME280;43298;52.560;13.508;2023-05-20T10:44:09;101924.06;;;17.16;100.00
13734;BME280;43298;52.560;13.508;2023-05-20T10:46:35;101924.09;;;17.67;100.00
13734;BME280;43298;52.560;13.508;2023-05-20T10:49:02;101916.38;;;18.45;100.00
13734;BME280;43298;52.560;13.508;2023-05-20T10:51:28;101911.09;;;18.14;100.00
13734;BME280;43298;52.560;13.508;2023-05-20T10:53:56;101904.56;;;18.53;100.00
13734;BME280;43298;52.560;13.508;2023-05-20T10:56:26;101905.63;;;17.85;100.00
13734;BME280;43298;52.560;13.508;2023-05-20T10:58:53;101903.78;;;17.55;100.00
13734;BME280;43298;52.560;13.508;2023-05-20T11:01:24;101892.44;;;17.71;100.00
13734;BME280;43298;52.560;13.508;2023-05-20T11:03:53;101894.69;;;17.62;100.00
13734;BME280;43298;52.560;13.508;2023-05-20T11:06:27;101892.47;;;17.20;100.00
13734;BME280;43298;52.560;13.508;2023-05-20T11:08:53;101890.72;;;17.04;100.00
13734;BME280;43298;52.560;13.508;2023-05-20T11:11:21;101888.72;;;17.60;100.00
13734;BME280;43298;52.560;13.508;2023-05-20T11:13:51;101872.13;;;17.44;100.00
13734;BME280;43298;52.560;13.508;2023-05-20T11:16:19;101881.94;;;18.04;100.00
13734;BME280;43298;52.560;13.508;2023-05-20T11:18:48;101874.47;;;18.45;100.00
13734;BME280;43298;52.560;13.508;2023-05-20T11:21:15;101869.91;;;18.33;100.00
13734;BME280;43298;52.560;13.508;2023-05-20T11:23:41;101875.41;;;18.59;100.00
13734;BME280;43298;52.560;13.508;2023-05-20T11:26:07;101879.00;;;18.57;100.00
13734;BME280;43298;52.560;13.508;2023-05-20T11:28:34;101875.66;;;18.55;100.00
13734;BME280;43298;52.560;13.508;2023-05-20T11:31:00;101877.41;;;18.54;100.00
13734;BME280;43298;52.560;13.508;2023-05-20T11:33:26;101874.47;;;18.45;100.00
13734;BME280;43298;52.560;13.508;2023-05-20T11:35:53;101873.06;;;18.84;100.00
13734;BME280;43298;52.560;13.508;2023-05-20T11:38:20;101863.06;;;18.46;100.00
13734;BME280;43298;52.560;13.508;2023-05-20T11:40:52;101870.41;;;18.39;100.00
13734;BME280;43298;52.560;13.508;2023-05-20T11:43:22;101866.69;;;18.59;100.00
13734;BME280;43298;52.560;13.508;2023-05-20T11:45:56;101862.25;;;19.04;100.00
13734;BME280;43298;52.560;13.508;2023-05-20T11:48:25;101868.22;;;18.92;100.00
13734;BME280;43298;52.560;13.508;2023-05-20T11:50:54;101870.88;;;19.06;100.00
13734;BME280;43298;52.560;13.508;2023-05-20T11:53:22;101865.97;;;18.71;100.00
13734;BME280;43298;52.560;13.508;2023-05-20T11:55:57;101869.41;;;18.87;100.00
13734;BME280;43298;52.560;13.508;2023-05-20T11:58:28;101858.03;;;19.45;100.00
13734;BME280;43298;52.560;13.508;2023-05-20T12:00:55;101856.63;;;19.40;100.00
13734;BME280;43298;52.560;13.508;2023-05-20T12:03:21;101864.69;;;19.37;100.00
13734;BME280;43298;52.560;13.508;2023-05-20T12:05:48;101854.06;;;19.24;100.00
13734;BME280;43298;52.560;13.508;2023-05-20T12:08:15;101857.63;;;19.37;100.00
13734;BME280;43298;52.560;13.508;2023-05-20T12:10:41;101852.47;;;19.22;100.00
13734;BME280;43298;52.560;13.508;2023-05-20T12:13:07;101848.22;;;19.19;100.00
13734;BME280;43298;52.560;13.508;2023-05-20T12:15:36;101835.69;;;19.94;100.00
13734;BME280;43298;52.560;13.508;2023-05-20T12:18:03;101835.66;;;19.68;100.00
13734;BME280;43298;52.560;13.508;2023-05-20T12:20:29;101825.97;;;19.54;100.00
13734;BME280;43298;52.560;13.508;2023-05-20T12:22:56;101833.81;;;20.63;100.00
13734;BME280;43298;52.560;13.508;2023-05-20T12:25:22;101837.34;;;19.55;100.00
13734;BME280;43298;52.560;13.508;2023-05-20T12:27:48;101838.13;;;18.84;100.00
13734;BME280;43298;52.560;13.508;2023-05-20T12:30:20;101827.94;;;19.79;100.00
13734;BME280;43298;52.560;13.508;2023-05-20T12:32:48;101814.38;;;21.05;100.00
13734;BME280;43298;52.560;13.508;2023-05-20T12:35:37;101803.41;;;21.61;100.00
13734;BME280;43298;52.560;13.508;2023-05-20T12:38:03;101799.00;;;21.12;100.00